CDT,Max TemperatureF,Mean TemperatureF,Min TemperatureF,Max Dew PointF,MeanDew PointF,Min DewpointF,Max Humidity, Mean Humidity, Min Humidity, Max Sea Level PressureIn, Mean Sea Level PressureIn, Min Sea Level PressureIn, Max VisibilityMiles, Mean VisibilityMiles, Min VisibilityMiles, Max Wind SpeedMPH, Mean Wind SpeedMPH, Max Gust SpeedMPH,PrecipitationIn, CloudCover, Events, WindDirDegrees
2013-10-1,81,69,57,64,60,53,90,72,54,29.95,29.91,29.84,10,10,9,14,8,18,0.00,0,,184
2013-10-2,82,72,62,70,65,59,93,74,55,30.02,29.95,29.86,10,8,1,13,8,20,0.00,4,,168
2013-10-3,84,73,62,70,65,59,93,78,62,29.92,29.82,29.71,10,9,2,23,14,28,0.65,5,Rain-Thunderstorm,163
2013-10-4,86,73,60,70,65,61,84,68,51,29.91,29.80,29.70,10,9,1,28,15,39,1.40,6,Rain-Thunderstorm,192
2013-10-5,60,53,45,52,38,33,72,58,43,30.02,29.95,29.90,10,10,10,20,10,24,0.00,4,,269
2013-10-6,59,51,42,43,38,33,86,69,51,30.01,29.90,29.84,10,10,10,22,11,30,T,6,Rain,286
2013-10-7,71,56,41,46,42,36,89,64,39,30.14,30.08,29.99,10,10,10,13,7,17,0.00,0,,235
2013-10-8,74,60,46,49,45,42,86,61,35,30.10,30.06,30.01,10,10,9,22,13,26,0.00,1,,171
2013-10-9,74,63,51,50,47,45,77,58,38,30.09,30.04,30.01,10,10,10,17,11,23,0.00,2,,160
2013-10-10,77,63,48,56,50,45,86,66,46,30.06,29.98,29.86,10,10,10,18,10,25,0.00,1,,162
2013-10-11,74,66,58,63,58,51,93,81,68,29.86,29.80,29.76,10,10,5,26,15,32,0.00,4,,173
2013-10-12,70,59,47,63,41,35,80,54,28,30.26,30.08,29.86,10,10,9,17,7,23,0.00,1,,351
2013-10-13,70,57,44,39,35,33,76,52,27,30.41,30.33,30.28,10,10,10,17,9,43,0.00,0,,72
2013-10-14,69,61,52,58,45,32,78,60,42,30.29,30.07,29.86,10,10,5,32,16,45,0.24,5,Rain,141
2013-10-15,60,53,46,57,46,36,93,70,47,30.07,29.96,29.85,10,9,2,21,11,25,0.10,6,Rain,274
2013-10-16,59,52,45,43,39,36,74,61,47,30.10,30.05,29.99,10,10,8,15,6,21,0.01,7,Rain,287
2013-10-17,66,52,38,43,38,34,86,60,34,30.02,29.96,29.89,10,10,10,17,8,25,0.00,3,,252
2013-10-18,44,40,36,37,35,34,92,81,70,30.15,30.10,30.03,10,9,5,14,7,23,0.39,6,Rain,288
2013-10-19,62,48,34,39,35,32,96,66,36,30.09,29.98,29.88,10,9,4,20,10,25,0.00,3,,227
2013-10-20,70,57,44,42,40,37,76,56,35,29.94,29.84,29.77,10,10,10,18,9,23,0.00,5,,238
2013-10-21,55,47,38,38,32,28,79,59,38,30.13,30.06,29.96,10,10,10,15,8,20,0.00,3,,307
2013-10-22,59,47,35,43,37,30,82,64,46,30.12,29.97,29.91,10,10,10,24,12,31,T,5,,293
2013-10-23,50,40,30,34,31,28,92,71,50,30.19,30.13,30.06,10,10,7,12,4,13,0.00,4,,269
2013-10-24,51,43,34,35,28,23,85,59,33,30.45,30.35,30.20,10,10,5,18,7,23,0.00,3,,347
2013-10-25,56,43,29,30,25,22,85,56,27,30.48,30.36,30.13,10,10,8,20,10,26,0.00,1,,202
2013-10-26,60,47,34,39,33,28,85,57,29,30.19,30.14,30.06,10,10,10,17,8,22,0.00,2,,304
2013-10-27,62,45,28,33,30,26,85,58,30,30.16,30.05,29.95,10,10,8,17,8,20,0.00,0,,197
2013-10-28,69,54,38,49,40,30,83,63,42,30.14,30.09,29.99,10,10,7,15,7,20,0.00,4,,164
2013-10-29,64,57,50,63,54,45,100,89,77,30.12,30.01,29.94,10,3,0,18,9,22,0.92,8,Fog-Rain,121
2013-10-30,69,63,57,65,63,58,100,87,73,29.95,29.82,29.70,10,5,0,24,12,36,0.60,8,Fog-Rain-Thunderstorm,189
2013-10-31,57,51,44,57,46,38,93,82,71,29.72,29.62,29.56,10,7,0,17,8,22,0.43,6,Rain,311